Terminal Aerodrome Forecast
Issued by NWS Blacksburg, VA

Current Version | Previous Version | Graphics & Text | Print | Product List | Glossary On
Versions: 1 2 3 4 5 6 7 8 9 10 11 12 13 14 15 16 17 18 19 20 21 22 23 24 25 26 27 28 29 30 31 32 33 34 35 36 37 38 39 40 41 42 43 44 45 46 47 48 49
000
FTUS41 KRNK 230523
TAFBLF
TAF
KBLF 230523Z 2306/2406 31008KT P6SM OVC005
      TEMPO 2308/2312 4SM -RA BR OVC004
     FM231500 32010KT P6SM OVC012
     FM232100 29006KT P6SM BKN010
     FM240300 31004KT P6SM SCT020=

USA.gov is the U.S. government's official web portal to all federal, state and local government web resources and services.